Time;durP1;ratioP1;P1;durP2;ratioP2;P2;SDS_P1;SDS_P2;PMS_P1;PMS_P2;Temp;Humidity;BMP_temperature;BMP_pressure;BME280_temperature;BME280_humidity;BME280_pressure;Samples;Min_cycle;Max_cycle;Signal;HPM_P1;HPM_P2
2023/04/08 00:02:09;;;;;;;;;;;5.30;99.90;;;;;;5153979;27;19919;-43
2023/04/08 00:04:35;;;;;;;;;;;5.20;99.90;;;;;;5153688;27;19911;-43
2023/04/08 00:07:00;;;;;;;;;;;5.20;99.90;;;;;;5153151;27;19911;-43
2023/04/08 00:09:25;;;;;;;;;;;5.10;99.90;;;;;;5153987;27;19907;-45
2023/04/08 00:11:51;;;;;;;;;;;5.10;99.90;;;;;;5153895;27;19998;-43
2023/04/08 00:14:17;;;;;;;;;;;5.10;99.90;;;;;;5153106;27;19916;-44
2023/04/08 00:16:42;;;;;;;;;;;5.10;99.90;;;;;;5153951;27;19908;-45
2023/04/08 00:19:08;;;;;;;;;;;5.00;99.90;;;;;;5154099;27;19913;-45
2023/04/08 00:21:33;;;;;;;;;;;5.00;99.90;;;;;;5152758;27;20354;-43
2023/04/08 00:23:59;;;;;;;;;;;5.00;99.90;;;;;;5143060;27;19911;-45
2023/04/08 00:26:25;;;;;;;;;;;4.90;99.90;;;;;;5150263;27;19969;-44
2023/04/08 00:28:50;;;;;;;;;;;4.90;99.90;;;;;;5153016;27;20003;-44
2023/04/08 00:31:16;;;;;;;;;;;4.90;99.90;;;;;;5139916;27;19965;-46
2023/04/08 00:33:41;;;;;;;;;;;4.80;99.90;;;;;;5136339;27;19926;-44
2023/04/08 00:36:07;;;;;;;;;;;4.80;99.90;;;;;;5154246;27;19915;-45
2023/04/08 00:38:32;;;;;;;;;;;4.70;99.90;;;;;;5147509;27;20281;-46
2023/04/08 00:40:58;;;;;;;;;;;4.70;99.90;;;;;;5136705;27;19907;-44
2023/04/08 00:43:23;;;;;;;;;;;4.60;99.90;;;;;;5135965;27;19911;-46
2023/04/08 00:45:49;;;;;;;;;;;4.60;99.90;;;;;;5136794;27;20351;-44
2023/04/08 00:48:14;;;;;;;;;;;4.50;99.90;;;;;;5136742;27;19915;-43
2023/04/08 00:50:42;;;;;;;;;;;4.50;99.90;;;;;;5135790;27;19962;-46
2023/04/08 00:53:07;;;;;;;;;;;4.40;99.90;;;;;;5136509;27;19917;-44
2023/04/08 00:55:33;;;;;;;;;;;4.40;99.90;;;;;;5136398;27;19907;-45
2023/04/08 00:57:58;;;;;;;;;;;4.40;99.90;;;;;;5135823;27;20285;-44
2023/04/08 01:00:25;;;;;;;;;;;4.40;99.90;;;;;;5136369;27;19911;-45
2023/04/08 01:02:58;;;;;;;;;;;4.30;99.90;;;;;;5135543;27;19926;-45
2023/04/08 01:05:29;;;;;;;;;;;4.30;99.90;;;;;;5136330;27;19915;-44
2023/04/08 01:07:55;;;;;;;;;;;4.30;99.90;;;;;;5136217;27;19908;-45
2023/04/08 01:10:28;;;;;;;;;;;4.20;99.90;;;;;;5135358;27;20044;-45
2023/04/08 01:12:55;;;;;;;;;;;4.20;99.90;;;;;;5136394;27;20281;-44
2023/04/08 01:15:23;;;;;;;;;;;4.20;99.90;;;;;;5136117;27;19915;-45
2023/04/08 01:17:50;;;;;;;;;;;4.20;99.90;;;;;;5135386;27;19930;-46
2023/04/08 01:20:16;;;;;;;;;;;4.20;99.90;;;;;;5136195;27;20322;-44
2023/04/08 01:23:00;;;;;;;;;;;4.20;99.90;;;;;;5135952;27;19915;-46
2023/04/08 01:25:35;;;;;;;;;;;4.10;99.90;;;;;;5135099;27;20002;-46
2023/04/08 01:28:11;;;;;;;;;;;4.10;99.90;;;;;;5135962;27;20250;-45
2023/04/08 01:30:38;;;;;;;;;;;4.10;99.90;;;;;;5135909;27;19907;-46
2023/04/08 01:33:04;;;;;;;;;;;4.10;99.90;;;;;;5135072;27;20016;-45
2023/04/08 01:35:30;;;;;;;;;;;4.00;99.90;;;;;;5152345;27;19927;-44
2023/04/08 01:37:56;;;;;;;;;;;4.00;99.90;;;;;;5156573;27;19918;-45
2023/04/08 01:40:22;;;;;;;;;;;4.00;99.90;;;;;;5155617;27;19907;-46
2023/04/08 01:42:48;;;;;;;;;;;4.00;99.90;;;;;;5154409;27;19911;-45
2023/04/08 01:45:15;;;;;;;;;;;4.00;99.90;;;;;;5155185;27;19911;-46
2023/04/08 01:47:40;;;;;;;;;;;3.90;99.90;;;;;;5155355;27;19907;-44
2023/04/08 01:50:06;;;;;;;;;;;3.90;99.90;;;;;;5156334;27;19914;-45
2023/04/08 01:52:33;;;;;;;;;;;3.90;99.90;;;;;;5155170;27;19907;-44
2023/04/08 01:54:59;;;;;;;;;;;3.80;99.90;;;;;;5155986;27;20281;-44
2023/04/08 01:57:26;;;;;;;;;;;3.80;99.90;;;;;;5156027;27;19907;-44
2023/04/08 01:59:55;;;;;;;;;;;3.80;99.90;;;;;;5155278;27;19908;-44
2023/04/08 02:02:21;;;;;;;;;;;3.70;99.90;;;;;;5155638;27;20381;-45
2023/04/08 02:04:47;;;;;;;;;;;3.70;99.90;;;;;;5155517;27;19994;-45
2023/04/08 02:07:13;;;;;;;;;;;3.70;99.90;;;;;;5155099;27;20396;-43
2023/04/08 02:09:38;;;;;;;;;;;3.70;99.90;;;;;;5155854;27;19907;-46
2023/04/08 02:12:04;;;;;;;;;;;3.70;99.90;;;;;;5155773;27;19918;-44
2023/04/08 02:14:30;;;;;;;;;;;3.60;99.90;;;;;;5154772;27;19915;-44
2023/04/08 02:17:01;;;;;;;;;;;3.60;99.90;;;;;;5155663;27;19907;-46
2023/04/08 02:19:35;;;;;;;;;;;3.60;99.90;;;;;;5155737;27;19907;-45
2023/04/08 02:22:03;;;;;;;;;;;3.60;99.90;;;;;;5154806;27;20297;-46
2023/04/08 02:24:29;;;;;;;;;;;3.60;99.90;;;;;;5155676;27;19914;-44
2023/04/08 02:26:55;;;;;;;;;;;3.60;99.90;;;;;;5155522;27;19907;-47
2023/04/08 02:29:21;;;;;;;;;;;3.60;99.90;;;;;;5154900;27;19907;-45
2023/04/08 02:31:47;;;;;;;;;;;3.60;99.90;;;;;;5155329;27;19911;-47
2023/04/08 02:34:13;;;;;;;;;;;3.60;99.90;;;;;;5149579;27;19923;-44
2023/04/08 02:36:39;;;;;;;;;;;3.60;99.90;;;;;;5133777;27;19914;-44
2023/04/08 02:39:05;;;;;;;;;;;3.60;99.90;;;;;;5134626;27;19938;-45
2023/04/08 02:41:31;;;;;;;;;;;3.60;99.90;;;;;;5133715;27;19950;-46
2023/04/08 02:43:56;;;;;;;;;;;3.50;99.90;;;;;;5134349;27;20400;-44
2023/04/08 02:46:22;;;;;;;;;;;3.50;99.90;;;;;;5134456;27;19911;-44
2023/04/08 02:48:47;;;;;;;;;;;3.50;99.90;;;;;;5133712;27;20380;-45
2023/04/08 02:51:13;;;;;;;;;;;3.50;99.90;;;;;;5134409;27;19907;-44
2023/04/08 02:53:38;;;;;;;;;;;3.50;99.90;;;;;;5147889;27;19919;-46
2023/04/08 02:56:04;;;;;;;;;;;3.50;99.90;;;;;;5153879;27;20005;-45
2023/04/08 02:58:30;;;;;;;;;;;3.50;99.90;;;;;;5154212;27;19907;-43
2023/04/08 03:00:55;;;;;;;;;;;3.50;99.90;;;;;;5153372;27;19907;-43
2023/04/08 03:03:28;;;;;;;;;;;3.50;99.90;;;;;;5153198;27;19919;-45
2023/04/08 03:05:54;;;;;;;;;;;3.50;99.90;;;;;;5153201;27;19911;-47
2023/04/08 03:08:20;;;;;;;;;;;3.40;99.90;;;;;;5150613;27;19915;-44
2023/04/08 03:10:45;;;;;;;;;;;3.40;99.90;;;;;;5152954;27;19907;-45
2023/04/08 03:13:10;;;;;;;;;;;3.40;99.90;;;;;;5153075;27;20374;-44
2023/04/08 03:15:36;;;;;;;;;;;3.40;99.90;;;;;;5153901;27;19907;-46
2023/04/08 03:18:02;;;;;;;;;;;3.40;99.90;;;;;;5153174;27;19960;-44
2023/04/08 03:20:28;;;;;;;;;;;3.40;99.90;;;;;;5153436;27;19933;-44
2023/04/08 03:22:53;;;;;;;;;;;3.40;99.90;;;;;;5153088;27;20417;-45
2023/04/08 03:25:19;;;;;;;;;;;3.30;99.90;;;;;;5150790;27;19911;-44
2023/04/08 03:27:44;;;;;;;;;;;3.40;99.90;;;;;;5152814;27;19913;-44
2023/04/08 03:30:10;;;;;;;;;;;3.30;99.90;;;;;;5153183;27;19976;-49
2023/04/08 03:32:35;;;;;;;;;;;3.30;99.90;;;;;;5151851;27;20013;-46
2023/04/08 03:35:01;;;;;;;;;;;3.20;99.90;;;;;;5151875;27;19919;-45
2023/04/08 03:37:26;;;;;;;;;;;3.20;99.90;;;;;;5152859;27;19907;-46
2023/04/08 03:39:53;;;;;;;;;;;3.20;99.90;;;;;;5152048;27;19907;-44
2023/04/08 03:42:18;;;;;;;;;;;3.20;99.90;;;;;;5152377;27;19972;-46
2023/04/08 03:44:43;;;;;;;;;;;3.20;99.90;;;;;;5151849;27;19910;-44
2023/04/08 03:47:09;;;;;;;;;;;3.20;99.90;;;;;;5152871;27;19949;-46
2023/04/08 03:49:35;;;;;;;;;;;3.20;99.90;;;;;;5152924;27;20369;-43
2023/04/08 03:52:00;;;;;;;;;;;3.20;99.90;;;;;;5151712;27;20396;-43
2023/04/08 03:54:26;;;;;;;;;;;3.20;99.90;;;;;;5151815;27;19985;-46
2023/04/08 03:56:51;;;;;;;;;;;3.20;99.90;;;;;;5152574;27;19915;-47
2023/04/08 03:59:17;;;;;;;;;;;3.20;99.90;;;;;;5152002;27;20385;-45
2023/04/08 04:01:42;;;;;;;;;;;3.20;99.90;;;;;;5151523;27;19923;-43
2023/04/08 04:04:08;;;;;;;;;;;3.20;99.90;;;;;;5150631;27;20070;-43
2023/04/08 04:06:33;;;;;;;;;;;3.20;99.90;;;;;;5132426;28;19907;-44
2023/04/08 04:08:59;;;;;;;;;;;3.10;99.90;;;;;;5143074;27;19907;-44
2023/04/08 04:11:25;;;;;;;;;;;3.20;99.90;;;;;;5155651;27;20315;-48
2023/04/08 04:13:50;;;;;;;;;;;3.20;99.90;;;;;;5157299;27;20450;-44
2023/04/08 04:16:16;;;;;;;;;;;3.20;99.90;;;;;;5158161;27;19911;-45
2023/04/08 04:18:41;;;;;;;;;;;3.20;99.90;;;;;;5157964;27;19954;-44
2023/04/08 04:21:07;;;;;;;;;;;3.20;99.90;;;;;;5157347;27;19958;-45
2023/04/08 04:23:33;;;;;;;;;;;3.30;99.90;;;;;;5157838;27;20370;-44
2023/04/08 04:25:58;;;;;;;;;;;3.30;99.90;;;;;;5157744;27;19938;-44
2023/04/08 04:28:24;;;;;;;;;;;3.40;99.90;;;;;;5157072;27;19915;-44
2023/04/08 04:30:49;;;;;;;;;;;3.40;99.90;;;;;;5157819;27;19907;-44
2023/04/08 04:33:15;;;;;;;;;;;3.50;99.90;;;;;;5157831;27;20015;-45
2023/04/08 04:35:40;;;;;;;;;;;3.50;99.90;;;;;;5156150;27;20369;-44
2023/04/08 04:38:09;;;;;;;;;;;3.50;99.90;;;;;;5157645;27;19911;-47
2023/04/08 04:40:35;;;;;;;;;;;3.50;99.90;;;;;;5157487;27;19911;-45
2023/04/08 04:43:01;;;;;;;;;;;3.50;99.90;;;;;;5156450;27;19959;-46
2023/04/08 04:45:26;;;;;;;;;;;3.60;99.90;;;;;;5157548;27;19911;-45
2023/04/08 04:47:52;;;;;;;;;;;3.60;99.90;;;;;;5157258;27;19960;-48
2023/04/08 04:50:17;;;;;;;;;;;3.60;99.90;;;;;;5156913;27;19939;-47
2023/04/08 04:52:43;;;;;;;;;;;3.50;99.90;;;;;;5157237;27;19908;-43
2023/04/08 04:55:08;;;;;;;;;;;3.60;99.90;;;;;;5156589;27;19915;-46
2023/04/08 04:57:34;;;;;;;;;;;3.50;99.90;;;;;;5157145;27;19947;-48
2023/04/08 04:59:59;;;;;;;;;;;3.60;99.90;;;;;;5157140;27;19914;-45
2023/04/08 05:02:25;;;;;;;;;;;3.60;99.90;;;;;;5156051;27;19931;-45
2023/04/08 05:04:52;;;;;;;;;;;3.60;99.90;;;;;;5156645;27;19915;-44
2023/04/08 05:07:18;;;;;;;;;;;3.60;99.90;;;;;;5157083;27;19914;-48
2023/04/08 05:09:43;;;;;;;;;;;3.70;99.90;;;;;;5156124;27;19907;-44
2023/04/08 05:12:09;;;;;;;;;;;3.70;99.90;;;;;;5156962;27;20002;-45
2023/04/08 05:14:35;;;;;;;;;;;3.80;99.90;;;;;;5136809;27;19959;-45
2023/04/08 05:17:00;;;;;;;;;;;3.90;99.90;;;;;;5135581;27;19911;-44
2023/04/08 05:19:26;;;;;;;;;;;3.90;99.90;;;;;;5136051;27;19976;-43
2023/04/08 05:21:51;;;;;;;;;;;4.00;99.90;;;;;;5135668;27;19907;-44
2023/04/08 05:24:17;;;;;;;;;;;4.10;99.90;;;;;;5134423;27;19911;-45
2023/04/08 05:26:42;;;;;;;;;;;4.20;99.90;;;;;;5135871;27;19907;-45
2023/04/08 05:29:08;;;;;;;;;;;4.20;99.90;;;;;;5135884;27;20322;-46
2023/04/08 05:31:33;;;;;;;;;;;4.20;99.90;;;;;;5154758;27;19918;-45
2023/04/08 05:33:58;;;;;;;;;;;4.30;99.90;;;;;;5156513;27;20355;-43
2023/04/08 05:36:25;;;;;;;;;;;4.30;99.90;;;;;;5156474;27;19963;-45
2023/04/08 05:38:50;;;;;;;;;;;4.30;99.90;;;;;;5155525;27;19911;-45
2023/04/08 05:41:16;;;;;;;;;;;4.30;99.90;;;;;;5155844;27;19911;-43
2023/04/08 05:43:41;;;;;;;;;;;4.40;99.90;;;;;;5148912;27;19911;-44
2023/04/08 05:46:07;;;;;;;;;;;4.40;99.90;;;;;;5141145;27;19914;-44
2023/04/08 05:48:33;;;;;;;;;;;4.50;99.90;;;;;;5156248;27;19911;-46
2023/04/08 05:50:58;;;;;;;;;;;4.50;99.90;;;;;;5155057;27;19919;-46
2023/04/08 05:53:25;;;;;;;;;;;4.50;99.90;;;;;;5134518;27;19930;-43
2023/04/08 05:55:50;;;;;;;;;;;4.50;99.90;;;;;;5135408;27;20006;-45
2023/04/08 05:58:16;;;;;;;;;;;4.60;99.90;;;;;;5136843;27;19998;-49
2023/04/08 06:00:41;;;;;;;;;;;4.60;99.90;;;;;;5150458;27;19915;-44
2023/04/08 06:03:07;;;;;;;;;;;4.70;99.90;;;;;;5155834;27;19972;-45
2023/04/08 06:05:32;;;;;;;;;;;4.70;99.90;;;;;;5141341;27;19964;-45
2023/04/08 06:07:58;;;;;;;;;;;4.70;99.90;;;;;;5146970;27;19911;-46
2023/04/08 06:10:23;;;;;;;;;;;4.80;99.90;;;;;;5146904;27;19946;-43
2023/04/08 06:12:49;;;;;;;;;;;4.90;99.90;;;;;;5134208;27;20002;-45
2023/04/08 06:15:15;;;;;;;;;;;5.00;99.90;;;;;;5135076;27;19919;-45
2023/04/08 06:17:41;;;;;;;;;;;5.10;99.90;;;;;;5135148;27;19907;-44
2023/04/08 06:20:08;;;;;;;;;;;5.30;99.90;;;;;;5134140;27;20354;-45
2023/04/08 06:22:34;;;;;;;;;;;5.40;99.90;;;;;;5134726;27;19908;-45
2023/04/08 06:25:00;;;;;;;;;;;5.60;99.90;;;;;;5134834;27;19914;-45
2023/04/08 06:27:26;;;;;;;;;;;5.70;99.90;;;;;;5138525;27;19911;-46
2023/04/08 06:29:52;;;;;;;;;;;5.80;99.90;;;;;;5148543;27;20359;-46
2023/04/08 06:32:18;;;;;;;;;;;5.90;99.90;;;;;;5134610;27;19911;-46
2023/04/08 06:34:46;;;;;;;;;;;5.90;99.90;;;;;;5133409;27;19919;-44
2023/04/08 06:37:12;;;;;;;;;;;5.90;99.90;;;;;;5131091;27;20484;-45
2023/04/08 06:39:37;;;;;;;;;;;6.00;99.90;;;;;;5134535;27;19957;-44
2023/04/08 06:42:02;;;;;;;;;;;6.00;99.90;;;;;;5133581;27;19907;-44
2023/04/08 06:44:28;;;;;;;;;;;6.00;99.90;;;;;;5134411;27;20032;-45
2023/04/08 06:46:53;;;;;;;;;;;6.10;99.90;;;;;;5134389;27;19907;-44
2023/04/08 06:49:19;;;;;;;;;;;6.10;99.90;;;;;;5133846;27;20278;-46
2023/04/08 06:51:44;;;;;;;;;;;6.10;99.90;;;;;;5134099;27;19988;-46
2023/04/08 06:54:10;;;;;;;;;;;6.20;99.90;;;;;;5134263;27;19958;-43
2023/04/08 06:56:36;;;;;;;;;;;6.20;99.90;;;;;;5136528;27;19912;-46
2023/04/08 06:59:03;;;;;;;;;;;6.20;99.90;;;;;;5142217;27;19918;-44
2023/04/08 07:01:29;;;;;;;;;;;6.30;99.90;;;;;;5141425;27;19912;-44
2023/04/08 07:03:55;;;;;;;;;;;6.30;99.90;;;;;;5138446;27;20373;-44
2023/04/08 07:06:21;;;;;;;;;;;6.30;99.90;;;;;;5154712;27;19907;-47
2023/04/08 07:08:46;;;;;;;;;;;6.40;99.90;;;;;;5142649;27;19916;-46
2023/04/08 07:11:12;;;;;;;;;;;6.40;99.90;;;;;;5134090;27;19908;-46
2023/04/08 07:13:37;;;;;;;;;;;6.50;99.90;;;;;;5133836;27;19936;-44
2023/04/08 07:16:03;;;;;;;;;;;6.60;99.90;;;;;;5132866;27;19907;-45
2023/04/08 07:18:28;;;;;;;;;;;6.70;99.90;;;;;;5133694;27;19911;-44
2023/04/08 07:20:54;;;;;;;;;;;6.70;99.90;;;;;;5133723;27;19911;-47
2023/04/08 07:23:20;;;;;;;;;;;6.80;99.90;;;;;;5132963;27;20327;-46
2023/04/08 07:25:45;;;;;;;;;;;6.90;99.90;;;;;;5133617;27;19964;-45
2023/04/08 07:28:11;;;;;;;;;;;7.00;99.90;;;;;;5133734;27;19952;-46
2023/04/08 07:30:36;;;;;;;;;;;7.10;99.90;;;;;;5135524;27;19958;-48
2023/04/08 07:33:02;;;;;;;;;;;7.20;99.90;;;;;;5154437;27;20258;-44
2023/04/08 07:35:27;;;;;;;;;;;7.30;99.90;;;;;;5154283;27;19922;-46
2023/04/08 07:37:53;;;;;;;;;;;7.30;99.90;;;;;;5153476;27;19911;-44
2023/04/08 07:40:19;;;;;;;;;;;7.40;99.90;;;;;;5139960;27;19918;-44
2023/04/08 07:42:45;;;;;;;;;;;7.40;99.90;;;;;;5149765;27;19911;-45
2023/04/08 07:45:10;;;;;;;;;;;7.40;99.90;;;;;;5149434;27;19911;-45
2023/04/08 07:47:36;;;;;;;;;;;7.40;99.90;;;;;;5139778;27;19907;-48
2023/04/08 07:50:02;;;;;;;;;;;7.40;99.90;;;;;;5137748;27;19960;-46
2023/04/08 07:52:31;;;;;;;;;;;7.30;99.90;;;;;;5136948;27;20370;-43
2023/04/08 07:54:56;;;;;;;;;;;7.30;99.90;;;;;;5144385;27;19962;-44
2023/04/08 07:57:22;;;;;;;;;;;7.40;99.90;;;;;;5157906;27;19977;-46
2023/04/08 07:59:47;;;;;;;;;;;7.50;99.90;;;;;;5157048;27;19946;-48
2023/04/08 08:02:13;;;;;;;;;;;7.60;99.90;;;;;;5156254;27;19919;-44
2023/04/08 08:04:38;;;;;;;;;;;7.70;99.90;;;;;;5158059;27;19914;-45
2023/04/08 08:07:04;;;;;;;;;;;7.90;99.90;;;;;;5157483;27;19911;-44
2023/04/08 08:09:30;;;;;;;;;;;8.10;99.90;;;;;;5150061;27;19918;-44
2023/04/08 08:11:55;;;;;;;;;;;8.10;99.90;;;;;;5136557;27;19911;-43
2023/04/08 08:14:21;;;;;;;;;;;8.20;99.90;;;;;;5137358;27;19923;-43
2023/04/08 08:16:47;;;;;;;;;;;8.20;99.90;;;;;;5144155;27;20030;-45
2023/04/08 08:19:13;;;;;;;;;;;8.30;99.90;;;;;;5138850;27;19915;-46
2023/04/08 08:21:39;;;;;;;;;;;8.30;99.90;;;;;;5137395;27;20405;-45
2023/04/08 08:24:05;;;;;;;;;;;8.30;99.90;;;;;;5137001;27;19926;-45
2023/04/08 08:26:30;;;;;;;;;;;8.30;99.90;;;;;;5137875;27;19986;-46
2023/04/08 08:28:56;;;;;;;;;;;8.50;99.90;;;;;;5142646;27;19908;-44
2023/04/08 08:31:21;;;;;;;;;;;8.70;99.90;;;;;;5148167;27;19919;-43
2023/04/08 08:33:47;;;;;;;;;;;8.70;99.90;;;;;;5144917;27;20418;-45
2023/04/08 08:36:12;;;;;;;;;;;8.70;99.90;;;;;;5141878;27;19937;-47
2023/04/08 08:38:38;;;;;;;;;;;8.60;99.90;;;;;;5145840;27;19950;-44
2023/04/08 08:41:03;;;;;;;;;;;8.60;99.90;;;;;;5141016;27;19911;-44
2023/04/08 08:43:32;;;;;;;;;;;8.60;99.90;;;;;;5153301;27;20377;-46
2023/04/08 08:45:58;;;;;;;;;;;8.60;99.90;;;;;;5154122;27;20373;-45
2023/04/08 08:48:24;;;;;;;;;;;8.60;99.90;;;;;;5156263;27;19907;-48
2023/04/08 08:50:50;;;;;;;;;;;8.80;99.90;;;;;;5156918;27;19907;-45
2023/04/08 08:53:16;;;;;;;;;;;9.00;99.90;;;;;;5156775;27;20005;-46
2023/04/08 08:55:42;;;;;;;;;;;9.10;99.90;;;;;;5155820;27;19927;-47
2023/04/08 08:58:08;;;;;;;;;;;9.20;99.90;;;;;;5156433;27;20387;-45
2023/04/08 09:00:35;;;;;;;;;;;9.30;99.90;;;;;;5154857;27;19947;-45
2023/04/08 09:03:19;;;;;;;;;;;9.30;99.90;;;;;;5155490;27;19922;-45
2023/04/08 09:05:54;;;;;;;;;;;9.50;99.90;;;;;;5154979;27;19949;-43
2023/04/08 09:08:25;;;;;;;;;;;9.60;99.90;;;;;;5152809;27;20287;-47
2023/04/08 09:10:51;;;;;;;;;;;9.80;99.90;;;;;;5156587;27;19911;-46
2023/04/08 09:13:17;;;;;;;;;;;9.80;99.90;;;;;;5156839;27;19907;-44
2023/04/08 09:16:04;;;;;;;;;;;9.90;99.90;;;;;;5156011;27;20289;-44
2023/04/08 09:18:31;;;;;;;;;;;9.90;99.90;;;;;;5156776;27;19943;-45
2023/04/08 09:20:58;;;;;;;;;;;9.90;99.90;;;;;;5156792;27;19907;-44
2023/04/08 09:23:24;;;;;;;;;;;9.90;99.90;;;;;;5155971;27;19908;-47
2023/04/08 09:25:49;;;;;;;;;;;9.90;99.90;;;;;;5156629;27;19975;-46
2023/04/08 09:28:19;;;;;;;;;;;10.00;99.90;;;;;;5156962;27;20418;-44
2023/04/08 09:30:45;;;;;;;;;;;9.90;99.90;;;;;;5154964;27;19919;-45
2023/04/08 09:33:11;;;;;;;;;;;9.80;99.90;;;;;;5156121;27;19918;-45
2023/04/08 09:35:36;;;;;;;;;;;9.60;99.90;;;;;;5142771;27;19919;-48
2023/04/08 09:38:02;;;;;;;;;;;9.50;99.90;;;;;;5141744;27;19981;-46
2023/04/08 09:40:31;;;;;;;;;;;9.50;99.90;;;;;;5152506;27;19990;-47
2023/04/08 09:42:59;;;;;;;;;;;9.40;99.90;;;;;;5156438;27;19914;-43
2023/04/08 09:45:26;;;;;;;;;;;9.30;99.90;;;;;;5138820;27;19907;-44
2023/04/08 09:47:57;;;;;;;;;;;9.40;99.90;;;;;;5135360;27;19907;-43
2023/04/08 09:50:25;;;;;;;;;;;9.40;99.90;;;;;;5145479;27;19918;-46
2023/04/08 09:52:53;;;;;;;;;;;9.40;99.90;;;;;;5136554;27;19946;-45
2023/04/08 09:55:21;;;;;;;;;;;9.40;99.90;;;;;;5137795;27;19926;-47
2023/04/08 09:58:01;;;;;;;;;;;9.40;99.90;;;;;;5135457;27;19998;-45
2023/04/08 10:00:45;;;;;;;;;;;9.50;99.90;;;;;;5140188;27;20143;-44
2023/04/08 10:03:22;;;;;;;;;;;9.60;99.90;;;;;;5153310;27;20014;-45
2023/04/08 10:05:48;;;;;;;;;;;9.50;99.90;;;;;;5150311;27;20304;-45
2023/04/08 10:08:14;;;;;;;;;;;9.50;99.90;;;;;;5141944;27;19911;-46
2023/04/08 10:10:40;;;;;;;;;;;9.50;99.90;;;;;;5153965;27;20292;-48
2023/04/08 10:13:05;;;;;;;;;;;9.60;99.90;;;;;;5141249;27;19998;-44
2023/04/08 10:15:32;;;;;;;;;;;9.60;99.90;;;;;;5135584;27;19965;-44
2023/04/08 10:18:04;;;;;;;;;;;9.70;99.90;;;;;;5140254;27;19922;-45
2023/04/08 10:20:35;;;;;;;;;;;9.70;99.90;;;;;;5149449;27;19911;-44
2023/04/08 10:23:01;;;;;;;;;;;9.70;99.90;;;;;;5147915;27;19915;-45
2023/04/08 10:25:28;;;;;;;;;;;9.70;99.90;;;;;;5140016;27;19916;-48
2023/04/08 10:27:53;;;;;;;;;;;9.70;99.90;;;;;;5145930;27;19974;-45
2023/04/08 10:30:24;;;;;;;;;;;9.70;99.90;;;;;;5147222;27;19919;-44
2023/04/08 10:32:50;;;;;;;;;;;9.90;99.90;;;;;;5138965;27;19915;-44
2023/04/08 10:35:16;;;;;;;;;;;9.90;99.90;;;;;;5150665;27;19931;-47
2023/04/08 10:37:42;;;;;;;;;;;10.00;99.90;;;;;;5154489;27;19934;-44
2023/04/08 10:40:17;;;;;;;;;;;10.10;99.90;;;;;;5154144;27;19913;-45
2023/04/08 10:42:43;;;;;;;;;;;10.30;99.90;;;;;;5153507;27;19915;-44
2023/04/08 10:45:09;;;;;;;;;;;10.30;99.90;;;;;;5154005;27;19918;-45
2023/04/08 10:47:34;;;;;;;;;;;10.40;99.90;;;;;;5152892;27;19934;-43
2023/04/08 10:50:01;;;;;;;;;;;10.50;99.90;;;;;;5154816;27;20281;-46
2023/04/08 10:52:26;;;;;;;;;;;10.50;99.90;;;;;;5134499;27;20277;-46
2023/04/08 10:54:52;;;;;;;;;;;10.50;99.90;;;;;;5149832;27;19921;-46
2023/04/08 10:57:24;;;;;;;;;;;10.50;99.90;;;;;;5153924;27;19976;-45
2023/04/08 10:59:50;;;;;;;;;;;10.70;99.90;;;;;;5152902;27;19964;-47
2023/04/08 11:02:15;;;;;;;;;;;10.70;99.90;;;;;;5148666;27;19923;-46
2023/04/08 11:04:42;;;;;;;;;;;10.60;99.90;;;;;;5148699;27;19907;-44
2023/04/08 11:07:08;;;;;;;;;;;10.50;99.90;;;;;;5147971;27;19911;-44
2023/04/08 11:09:33;;;;;;;;;;;10.50;99.90;;;;;;5140531;27;19911;-46
2023/04/08 11:12:00;;;;;;;;;;;10.40;99.90;;;;;;5148151;27;20281;-46
2023/04/08 11:14:26;;;;;;;;;;;10.40;99.90;;;;;;5133928;27;19926;-45
2023/04/08 11:16:51;;;;;;;;;;;10.40;99.90;;;;;;5149436;27;20001;-45
2023/04/08 11:19:17;;;;;;;;;;;10.50;99.90;;;;;;5154493;27;20270;-44
2023/04/08 11:21:43;;;;;;;;;;;10.50;99.90;;;;;;5153250;27;19911;-45
2023/04/08 11:24:08;;;;;;;;;;;10.60;99.90;;;;;;5138289;27;19918;-47
2023/04/08 11:26:36;;;;;;;;;;;10.60;99.90;;;;;;5133609;27;19908;-44
2023/04/08 11:29:01;;;;;;;;;;;10.70;99.90;;;;;;5135737;27;19975;-45
2023/04/08 11:31:27;;;;;;;;;;;10.70;99.90;;;;;;5134578;27;19953;-44
2023/04/08 11:33:53;;;;;;;;;;;10.60;99.90;;;;;;5133669;27;20273;-46
2023/04/08 11:36:20;;;;;;;;;;;10.70;99.90;;;;;;5144538;27;20044;-45
2023/04/08 11:38:46;;;;;;;;;;;10.80;99.90;;;;;;5133941;28;19937;-46
2023/04/08 11:41:12;;;;;;;;;;;10.80;99.90;;;;;;5146247;27;19907;-45
2023/04/08 11:43:39;;;;;;;;;;;10.80;99.90;;;;;;5154050;27;20265;-43
2023/04/08 11:46:14;;;;;;;;;;;10.90;99.90;;;;;;5143641;27;19908;-45
2023/04/08 11:48:40;;;;;;;;;;;10.80;99.90;;;;;;5135153;27;19918;-44
2023/04/08 11:51:09;;;;;;;;;;;10.80;99.90;;;;;;5150752;27;19998;-47
2023/04/08 11:53:37;;;;;;;;;;;10.80;99.90;;;;;;5134513;27;19915;-44
2023/04/08 11:56:16;;;;;;;;;;;10.70;99.90;;;;;;5147284;27;19911;-44
2023/04/08 11:58:41;;;;;;;;;;;10.70;99.90;;;;;;5134645;27;20311;-45
2023/04/08 12:01:07;;;;;;;;;;;10.80;99.90;;;;;;5133375;27;19915;-46
2023/04/08 12:03:32;;;;;;;;;;;10.80;99.90;;;;;;5132915;28;19919;-46
2023/04/08 12:05:58;;;;;;;;;;;10.70;99.90;;;;;;5132666;27;19912;-45
2023/04/08 12:08:24;;;;;;;;;;;10.70;99.90;;;;;;5135404;27;20400;-44
2023/04/08 12:10:49;;;;;;;;;;;10.60;99.90;;;;;;5140492;27;19908;-45
2023/04/08 12:13:15;;;;;;;;;;;10.60;99.90;;;;;;5147246;27;20394;-46
2023/04/08 12:15:41;;;;;;;;;;;10.50;99.90;;;;;;5135902;27;19922;-43
2023/04/08 12:18:06;;;;;;;;;;;10.50;99.90;;;;;;5132263;28;20316;-45
2023/04/08 12:20:31;;;;;;;;;;;10.50;99.90;;;;;;5132778;27;19907;-45
2023/04/08 12:22:57;;;;;;;;;;;10.50;99.90;;;;;;5133177;28;20334;-45
2023/04/08 12:25:22;;;;;;;;;;;10.50;99.90;;;;;;5132290;28;19911;-45
2023/04/08 12:27:48;;;;;;;;;;;10.50;99.90;;;;;;5133118;28;19915;-44
2023/04/08 12:30:13;;;;;;;;;;;10.50;99.90;;;;;;5136043;27;19955;-45
2023/04/08 12:32:40;;;;;;;;;;;10.40;99.90;;;;;;5141988;27;19911;-44
2023/04/08 12:35:05;;;;;;;;;;;10.50;99.90;;;;;;5157868;27;19922;-44
2023/04/08 12:37:32;;;;;;;;;;;10.50;99.90;;;;;;5157453;27;19911;-43
2023/04/08 12:39:57;;;;;;;;;;;10.50;99.90;;;;;;5144977;27;19911;-46
2023/04/08 12:42:23;;;;;;;;;;;10.50;99.90;;;;;;5138550;27;19931;-46
2023/04/08 12:44:48;;;;;;;;;;;10.40;99.90;;;;;;5152362;27;19911;-43
2023/04/08 12:47:14;;;;;;;;;;;10.40;99.90;;;;;;5135952;27;19908;-44
2023/04/08 12:49:39;;;;;;;;;;;10.40;99.90;;;;;;5136528;27;19907;-45
2023/04/08 12:52:05;;;;;;;;;;;10.40;99.90;;;;;;5136469;27;19950;-45
2023/04/08 12:54:31;;;;;;;;;;;10.30;99.90;;;;;;5135512;27;19968;-45
2023/04/08 12:56:56;;;;;;;;;;;10.30;99.90;;;;;;5149077;27;19938;-44
2023/04/08 12:59:22;;;;;;;;;;;10.30;99.90;;;;;;5136289;27;20346;-45
2023/04/08 13:01:47;;;;;;;;;;;10.40;99.90;;;;;;5135938;27;19996;-46
2023/04/08 13:04:13;;;;;;;;;;;10.40;99.90;;;;;;5148021;27;20001;-45
2023/04/08 13:06:38;;;;;;;;;;;10.40;99.90;;;;;;5141563;27;19911;-44
2023/04/08 13:09:04;;;;;;;;;;;10.40;99.90;;;;;;5145172;27;19911;-45
2023/04/08 13:11:29;;;;;;;;;;;10.50;99.90;;;;;;5156598;27;19911;-46
2023/04/08 13:13:56;;;;;;;;;;;10.50;99.90;;;;;;5149682;27;20393;-43
2023/04/08 13:16:21;;;;;;;;;;;10.50;99.90;;;;;;5135493;27;19911;-42
2023/04/08 13:18:47;;;;;;;;;;;10.60;99.90;;;;;;5135923;27;19934;-44
2023/04/08 13:21:12;;;;;;;;;;;10.70;99.90;;;;;;5141980;27;19911;-44
2023/04/08 13:23:37;;;;;;;;;;;10.80;99.90;;;;;;5141659;27;20366;-46
2023/04/08 13:26:03;;;;;;;;;;;10.80;99.90;;;;;;5137035;27;19912;-46
2023/04/08 13:28:28;;;;;;;;;;;10.90;99.90;;;;;;5134918;27;19918;-43
2023/04/08 13:30:54;;;;;;;;;;;11.00;99.90;;;;;;5135796;27;19913;-43
2023/04/08 13:33:21;;;;;;;;;;;11.00;99.90;;;;;;5135829;27;19907;-44
2023/04/08 13:35:46;;;;;;;;;;;11.00;99.90;;;;;;5134715;27;19920;-43
2023/04/08 13:38:12;;;;;;;;;;;11.00;99.90;;;;;;5143925;27;19922;-43
2023/04/08 13:40:38;;;;;;;;;;;11.10;99.90;;;;;;5146093;27;20367;-44
2023/04/08 13:43:04;;;;;;;;;;;11.10;99.90;;;;;;5150599;27;19957;-43
2023/04/08 13:45:29;;;;;;;;;;;11.10;99.90;;;;;;5134936;27;20278;-46
2023/04/08 13:47:55;;;;;;;;;;;11.10;99.90;;;;;;5135795;27;19994;-43
2023/04/08 13:50:21;;;;;;;;;;;11.10;99.90;;;;;;5135095;27;20315;-46
2023/04/08 13:52:46;;;;;;;;;;;11.10;99.90;;;;;;5135586;27;19916;-44
2023/04/08 13:55:12;;;;;;;;;;;11.10;99.90;;;;;;5135399;27;19922;-43
2023/04/08 13:57:37;;;;;;;;;;;11.10;99.90;;;;;;5134531;27;19965;-44
2023/04/08 14:00:03;;;;;;;;;;;11.20;99.90;;;;;;5135366;27;19907;-43
2023/04/08 14:02:29;;;;;;;;;;;11.20;99.90;;;;;;5134790;27;20401;-43
2023/04/08 14:04:55;;;;;;;;;;;11.10;99.90;;;;;;5134474;27;19951;-45
2023/04/08 14:07:20;;;;;;;;;;;11.10;99.90;;;;;;5135034;27;20002;-44
2023/04/08 14:09:46;;;;;;;;;;;11.10;99.90;;;;;;5135061;27;19911;-45
2023/04/08 14:12:11;;;;;;;;;;;11.20;99.90;;;;;;5134438;27;19908;-45
2023/04/08 14:14:37;;;;;;;;;;;11.30;99.90;;;;;;5151458;27;19967;-44
2023/04/08 14:17:03;;;;;;;;;;;11.30;99.90;;;;;;5155910;27;19915;-43
2023/04/08 14:19:28;;;;;;;;;;;11.30;99.90;;;;;;5154806;27;19927;-44
2023/04/08 14:21:54;;;;;;;;;;;11.40;99.90;;;;;;5147633;27;19911;-44